createdAt,value
2022-08-05T00:01:20.035Z,5.90
2022-08-05T00:03:49.384Z,6.60
2022-08-05T00:06:30.799Z,7.00
2022-08-05T00:09:03.593Z,6.45
2022-08-05T00:11:35.205Z,6.60
2022-08-05T00:14:19.845Z,6.70
2022-08-05T00:16:54.035Z,6.68
2022-08-05T00:19:24.979Z,6.20
2022-08-05T00:22:06.923Z,6.68
2022-08-05T00:24:44.295Z,7.03
2022-08-05T00:27:16.740Z,6.63
2022-08-05T00:29:47.325Z,7.43
2022-08-05T00:32:20.097Z,7.00
2022-08-05T00:35:06.696Z,6.55
2022-08-05T00:37:52.921Z,6.88
2022-08-05T00:40:29.229Z,7.07
2022-08-05T00:43:11.537Z,7.20
2022-08-05T00:45:47.834Z,7.03
2022-08-05T00:48:31.275Z,7.40
2022-08-05T00:51:08.966Z,7.70
2022-08-05T00:54:02.362Z,7.30
2022-08-05T00:56:33.356Z,7.35
2022-08-05T00:59:06.867Z,7.57
2022-08-05T01:01:42.757Z,7.10
2022-08-05T01:04:20.098Z,8.40
2022-08-05T01:06:57.185Z,7.18
2022-08-05T01:09:31.887Z,7.50
2022-08-05T01:12:18.504Z,7.40
2022-08-05T01:14:59.227Z,7.55
2022-08-05T01:17:44.074Z,7.30
2022-08-05T01:20:30.586Z,6.65
2022-08-05T01:23:23.263Z,6.70
2022-08-05T01:26:32.622Z,6.75
2022-08-05T01:29:16.499Z,6.97
2022-08-05T01:31:57.653Z,6.18
2022-08-05T01:34:35.872Z,6.28
2022-08-05T01:37:18.016Z,6.63
2022-08-05T01:39:59.045Z,6.63
2022-08-05T01:42:32.515Z,6.30
2022-08-05T01:45:09.283Z,6.28
2022-08-05T01:47:49.506Z,6.50
2022-08-05T01:50:31.987Z,6.20
2022-08-05T01:53:12.591Z,6.28
2022-08-05T01:55:47.971Z,5.85
2022-08-05T01:58:40.489Z,5.50
2022-08-05T02:01:17.128Z,6.60
2022-08-05T02:03:58.437Z,6.68
2022-08-05T02:06:37.380Z,6.03
2022-08-05T02:09:09.659Z,6.60
2022-08-05T02:11:56.621Z,6.90
2022-08-05T02:14:35.311Z,6.78
2022-08-05T02:18:28.259Z,6.78
2022-08-05T02:20:20.695Z,6.15
2022-08-05T02:23:00.218Z,6.63
2022-08-05T02:25:50.157Z,6.88
2022-08-05T02:28:29.010Z,6.18
2022-08-05T02:31:14.322Z,6.95
2022-08-05T02:33:59.948Z,7.07
2022-08-05T02:36:32.068Z,7.05
2022-08-05T02:39:09.933Z,6.88
2022-08-05T02:42:01.294Z,6.90
2022-08-05T02:44:34.822Z,6.80
2022-08-05T02:47:09.072Z,6.88
2022-08-05T02:49:45.749Z,7.18
2022-08-05T02:52:29.556Z,7.57
2022-08-05T02:55:05.365Z,8.32
2022-08-05T02:58:10.840Z,8.30
2022-08-05T03:00:34.287Z,8.73
2022-08-05T03:03:10.197Z,9.07
2022-08-05T03:06:54.112Z,9.05
2022-08-05T03:08:38.741Z,8.65
2022-08-05T03:11:57.107Z,7.07
2022-08-05T03:14:15.153Z,7.72
2022-08-05T03:16:45.420Z,8.05
2022-08-05T03:19:20.282Z,8.75
2022-08-05T03:22:16.534Z,11.38
2022-08-05T03:24:52.231Z,11.23
2022-08-05T03:27:23.767Z,12.02
2022-08-05T03:30:08.403Z,10.82
2022-08-05T03:32:40.818Z,10.73
2022-08-05T03:35:12.217Z,10.90
2022-08-05T03:37:46.917Z,10.25
2022-08-05T03:40:31.263Z,10.77
2022-08-05T03:43:58.742Z,9.85
2022-08-05T03:45:57.811Z,10.98
2022-08-05T03:48:29.887Z,10.50
2022-08-05T03:52:38.978Z,9.02
2022-08-05T03:54:59.071Z,9.38
2022-08-05T03:57:16.638Z,9.50
2022-08-05T03:59:59.879Z,9.70
2022-08-05T04:02:38.218Z,10.88
2022-08-05T04:05:12.893Z,11.73
2022-08-05T04:07:57.402Z,12.75
2022-08-05T04:10:37.365Z,11.80
2022-08-05T04:13:10.000Z,11.23
2022-08-05T04:16:02.764Z,10.25
2022-08-05T04:18:32.326Z,10.40
2022-08-05T04:21:06.652Z,9.57
2022-08-05T04:23:57.173Z,9.23
2022-08-05T04:26:32.270Z,10.35
2022-08-05T04:29:07.316Z,10.35
2022-08-05T04:31:39.434Z,9.27
2022-08-05T04:34:19.916Z,9.10
2022-08-05T04:37:00.034Z,11.30
2022-08-05T04:39:31.118Z,11.18
2022-08-05T04:42:05.348Z,10.95
2022-08-05T04:44:35.487Z,10.68
2022-08-05T04:47:09.756Z,11.23
2022-08-05T04:50:02.866Z,10.77
2022-08-05T04:52:33.459Z,11.45
2022-08-05T04:55:13.885Z,11.70
2022-08-05T04:57:54.108Z,10.85
2022-08-05T05:00:27.882Z,11.30
2022-08-05T05:03:03.230Z,10.90
2022-08-05T05:05:34.830Z,11.00
2022-08-05T05:08:34.119Z,12.10
2022-08-05T05:11:04.251Z,11.65
2022-08-05T05:13:43.238Z,13.20
2022-08-05T05:16:15.498Z,18.00
2022-08-05T05:19:09.206Z,21.92
2022-08-05T05:21:40.270Z,23.38
2022-08-05T05:24:11.170Z,23.35
2022-08-05T05:26:46.508Z,23.02
2022-08-05T05:29:20.778Z,24.23
2022-08-05T05:31:52.475Z,23.77
2022-08-05T05:34:27.325Z,21.33
2022-08-05T05:37:03.167Z,21.63
2022-08-05T05:39:38.792Z,22.83
2022-08-05T05:42:12.949Z,21.77
2022-08-05T05:44:46.575Z,20.88
2022-08-05T05:47:22.103Z,21.10
2022-08-05T05:50:01.937Z,19.52
2022-08-05T05:52:37.917Z,23.13
2022-08-05T05:55:13.884Z,20.52
2022-08-05T05:57:52.800Z,20.30
2022-08-05T06:00:46.393Z,20.88
2022-08-05T06:03:40.854Z,26.08
2022-08-05T06:06:08.271Z,23.75
2022-08-05T06:08:39.664Z,23.35
2022-08-05T06:11:13.351Z,25.02
2022-08-05T06:13:50.493Z,24.55
2022-08-05T06:16:32.607Z,23.38
2022-08-05T06:19:07.540Z,23.92
2022-08-05T06:21:42.226Z,24.17
2022-08-05T06:24:18.010Z,23.27
2022-08-05T06:26:56.127Z,25.25
2022-08-05T06:29:49.338Z,23.80
2022-08-05T06:32:25.906Z,23.67
2022-08-05T06:35:06.148Z,28.95
2022-08-05T06:37:57.728Z,29.85
2022-08-05T06:40:32.466Z,29.17
2022-08-05T06:43:03.260Z,28.65
2022-08-05T06:45:45.070Z,25.60
2022-08-05T06:48:50.471Z,26.27
2022-08-05T06:51:23.832Z,23.70
2022-08-05T06:54:01.910Z,22.83
2022-08-05T06:56:34.680Z,28.35
2022-08-05T06:59:09.384Z,29.70
2022-08-05T07:01:40.823Z,29.95
2022-08-05T07:04:15.359Z,33.03
2022-08-05T07:06:50.408Z,32.28
2022-08-05T07:09:20.896Z,33.45
2022-08-05T07:11:55.822Z,32.65
2022-08-05T07:14:43.555Z,32.38
2022-08-05T07:18:02.278Z,30.48
2022-08-05T07:20:32.197Z,35.92
2022-08-05T07:23:04.692Z,31.50
2022-08-05T07:25:56.397Z,33.85
2022-08-05T07:28:28.013Z,28.65
2022-08-05T07:30:58.582Z,29.35
2022-08-05T07:33:36.687Z,27.10
2022-08-05T07:36:20.209Z,28.88
2022-08-05T07:38:55.047Z,27.25
2022-08-05T07:42:13.795Z,28.88
2022-08-05T07:44:40.223Z,28.50
2022-08-05T07:47:11.223Z,29.65
2022-08-05T07:49:44.231Z,29.45
2022-08-05T07:52:27.229Z,32.42
2022-08-05T07:54:58.340Z,30.63
2022-08-05T07:57:41.934Z,30.05
2022-08-05T08:00:19.095Z,32.45
2022-08-05T08:03:14.706Z,31.67
2022-08-05T08:05:49.611Z,31.45
2022-08-05T08:08:23.125Z,34.20
2022-08-05T08:10:57.308Z,34.88
2022-08-05T08:13:29.077Z,35.13
2022-08-05T08:16:35.755Z,32.78
2022-08-05T08:18:50.640Z,37.00
2022-08-05T08:21:20.940Z,38.72
2022-08-05T08:24:02.215Z,35.53
2022-08-05T08:26:34.770Z,36.75
2022-08-05T08:29:45.582Z,37.13
2022-08-05T08:31:55.602Z,36.97
2022-08-05T08:34:30.497Z,38.80
2022-08-05T08:37:05.486Z,37.50
2022-08-05T08:39:44.228Z,35.83
2022-08-05T08:42:34.495Z,34.10
2022-08-05T08:45:26.644Z,32.08
2022-08-05T08:48:07.319Z,32.22
2022-08-05T08:51:03.563Z,30.85
2022-08-05T08:53:45.108Z,33.03
2022-08-05T08:56:21.120Z,35.15
2022-08-05T08:58:52.643Z,33.65
2022-08-05T09:01:23.949Z,30.40
2022-08-05T09:03:57.543Z,26.95
2022-08-05T09:06:32.000Z,27.50
2022-08-05T09:09:04.164Z,28.33
2022-08-05T09:11:53.077Z,27.80
2022-08-05T09:14:57.404Z,27.40
2022-08-05T09:17:41.220Z,25.60
2022-08-05T09:20:11.881Z,25.60
2022-08-05T09:23:19.646Z,27.52
2022-08-05T09:26:02.980Z,29.25
2022-08-05T09:28:39.236Z,31.92
2022-08-05T09:31:43.899Z,33.45
2022-08-05T09:34:11.743Z,33.65
2022-08-05T09:36:56.268Z,36.33
2022-08-05T09:39:45.650Z,38.88
2022-08-05T09:42:23.670Z,42.95
2022-08-05T09:46:04.763Z,46.00
2022-08-05T09:48:02.435Z,49.10
2022-08-05T09:50:43.959Z,54.55
2022-08-05T09:53:25.959Z,55.80
2022-08-05T09:56:15.055Z,58.92
2022-08-05T09:58:58.724Z,60.13
2022-08-05T10:01:33.752Z,57.55
2022-08-05T10:04:10.557Z,56.33
2022-08-05T10:06:54.605Z,51.83
2022-08-05T10:09:29.349Z,49.50
2022-08-05T10:12:30.722Z,45.60
2022-08-05T10:15:20.947Z,50.88
2022-08-05T10:18:16.607Z,50.80
2022-08-05T10:21:06.293Z,49.35
2022-08-05T10:23:59.192Z,46.78
2022-08-05T10:26:33.862Z,44.03
2022-08-05T10:29:04.581Z,41.17
2022-08-05T10:32:53.303Z,37.63
2022-08-05T10:34:31.155Z,36.65
2022-08-05T10:37:02.518Z,37.72
2022-08-05T10:40:04.105Z,34.70
2022-08-05T10:42:34.674Z,34.08
2022-08-05T10:45:20.843Z,31.23
2022-08-05T10:48:29.259Z,28.08
2022-08-05T10:51:21.649Z,25.90
2022-08-05T10:54:01.570Z,22.27
2022-08-05T10:56:52.954Z,22.20
2022-08-05T11:00:04.363Z,21.63
2022-08-05T11:02:37.739Z,21.05
2022-08-05T11:05:13.543Z,19.38
2022-08-05T11:08:22.199Z,20.95
2022-08-05T11:11:01.098Z,19.35
2022-08-05T11:13:57.907Z,18.50
2022-08-05T11:16:47.498Z,17.88
2022-08-05T11:20:16.792Z,16.77
2022-08-05T11:22:49.874Z,14.00
2022-08-05T11:26:05.370Z,12.10
2022-08-05T11:28:50.132Z,11.52
2022-08-05T11:31:57.234Z,9.13
2022-08-05T11:34:47.429Z,7.78
2022-08-05T11:38:30.693Z,7.00
2022-08-05T11:41:34.661Z,6.30
2022-08-05T11:44:08.365Z,6.63
2022-08-05T11:47:10.256Z,6.20
2022-08-05T11:49:36.319Z,5.65
2022-08-05T11:52:11.156Z,6.60
2022-08-05T11:54:43.512Z,8.57
2022-08-05T11:58:08.205Z,9.13
2022-08-05T12:00:30.738Z,9.13
2022-08-05T12:03:01.323Z,8.10
2022-08-05T12:05:39.822Z,10.73
2022-08-05T12:08:18.161Z,12.57
2022-08-05T12:10:52.546Z,11.85
2022-08-05T12:13:49.208Z,11.30
2022-08-05T12:16:27.149Z,11.52
2022-08-05T12:18:59.464Z,9.32
2022-08-05T12:21:39.187Z,7.20
2022-08-05T12:24:17.572Z,6.07
2022-08-05T12:26:52.939Z,6.20
2022-08-05T12:29:38.889Z,6.68
2022-08-05T12:32:10.448Z,6.90
2022-08-05T12:34:41.762Z,6.28
2022-08-05T12:37:17.648Z,6.88
2022-08-05T12:39:55.473Z,6.97
2022-08-05T12:42:34.397Z,6.68
2022-08-05T12:45:10.296Z,6.38
2022-08-05T12:48:01.101Z,6.22
2022-08-05T12:50:31.859Z,4.85
2022-08-05T12:53:02.875Z,4.30
2022-08-05T12:55:35.270Z,4.40
2022-08-05T12:58:50.632Z,4.38
2022-08-05T13:02:00.554Z,4.10
2022-08-05T13:04:20.874Z,3.55
2022-08-05T13:06:52.262Z,3.05
2022-08-05T13:09:28.351Z,2.97
2022-08-05T13:12:07.407Z,3.22
2022-08-05T13:15:05.031Z,3.45
2022-08-05T13:17:41.514Z,3.88
2022-08-05T13:20:19.183Z,3.90
2022-08-05T13:22:56.448Z,4.32
2022-08-05T13:25:51.898Z,3.90
2022-08-05T13:28:20.543Z,3.88
2022-08-05T13:31:14.453Z,4.63
2022-08-05T13:34:22.682Z,5.10
2022-08-05T13:36:38.692Z,4.38
2022-08-05T13:40:14.660Z,5.05
2022-08-05T13:42:00.611Z,5.50
2022-08-05T13:44:30.804Z,5.50
2022-08-05T13:47:04.607Z,5.97
2022-08-05T13:49:45.274Z,6.00
2022-08-05T13:52:19.685Z,5.72
2022-08-05T13:55:00.999Z,5.95
2022-08-05T13:57:51.184Z,5.90
2022-08-05T14:00:26.861Z,5.18
2022-08-05T14:03:01.218Z,5.93
2022-08-05T14:06:24.381Z,5.25
2022-08-05T14:08:32.365Z,6.72
2022-08-05T14:11:20.028Z,6.78
2022-08-05T14:13:54.971Z,6.88
2022-08-05T14:16:29.867Z,6.75
2022-08-05T14:19:04.521Z,6.20
2022-08-05T14:22:09.760Z,7.78
2022-08-05T14:24:30.867Z,7.05
2022-08-05T14:27:18.569Z,6.38
2022-08-05T14:29:51.338Z,6.13
2022-08-05T14:32:27.259Z,7.10
2022-08-05T14:35:00.989Z,7.13
2022-08-05T14:37:48.232Z,6.80
2022-08-05T14:40:19.321Z,6.88
2022-08-05T14:42:52.062Z,7.00
2022-08-05T14:45:22.551Z,6.80
2022-08-05T14:48:03.961Z,5.70
2022-08-05T14:50:39.724Z,4.40
2022-08-05T14:53:16.454Z,4.60
2022-08-05T14:55:52.073Z,4.20
2022-08-05T14:58:28.635Z,4.75
2022-08-05T15:01:16.193Z,4.90
2022-08-05T15:03:47.004Z,4.20
2022-08-05T15:06:27.919Z,4.20
2022-08-05T15:09:03.491Z,4.32
2022-08-05T15:11:52.311Z,3.65
2022-08-05T15:14:35.617Z,3.50
2022-08-05T15:17:44.798Z,3.30
2022-08-05T15:20:17.246Z,2.78
2022-08-05T15:22:54.091Z,2.30
2022-08-05T15:25:51.549Z,2.08
2022-08-05T15:28:20.436Z,2.00
2022-08-05T15:30:57.432Z,2.10
2022-08-05T15:34:04.787Z,1.70
2022-08-05T15:36:24.161Z,1.85
2022-08-05T15:41:04.792Z,1.75
2022-08-05T15:41:57.729Z,2.05
2022-08-05T15:44:32.416Z,2.08
2022-08-05T15:47:05.361Z,2.13
2022-08-05T15:49:47.977Z,1.70
2022-08-05T15:52:51.660Z,2.25
2022-08-05T15:55:18.872Z,1.95
2022-08-05T15:57:51.712Z,1.70
2022-08-05T16:00:30.564Z,1.95
2022-08-05T16:03:16.351Z,2.10
2022-08-05T16:05:49.551Z,2.20
2022-08-05T16:08:22.746Z,1.60
2022-08-05T16:11:00.823Z,1.67
2022-08-05T16:13:34.834Z,1.60
2022-08-05T16:16:05.351Z,1.58
2022-08-05T16:18:51.734Z,1.80
2022-08-05T16:22:00.619Z,1.50
2022-08-05T16:24:41.083Z,1.70
2022-08-05T16:27:07.302Z,1.38
2022-08-05T16:29:42.098Z,1.50
2022-08-05T16:32:15.651Z,1.50
2022-08-05T16:34:45.882Z,1.50
2022-08-05T16:38:03.202Z,1.50
2022-08-05T16:40:25.009Z,1.50
2022-08-05T16:43:00.096Z,1.73
2022-08-05T16:46:07.517Z,1.50
2022-08-05T16:48:33.842Z,1.70
2022-08-05T16:51:09.844Z,1.50
2022-08-05T16:54:04.926Z,1.40
2022-08-05T16:56:41.820Z,1.55
2022-08-05T16:59:15.763Z,2.03
2022-08-05T17:01:53.250Z,1.70
2022-08-05T17:04:26.441Z,1.80
2022-08-05T17:07:03.267Z,1.83
2022-08-05T17:09:58.105Z,1.98
2022-08-05T17:12:50.540Z,1.67
2022-08-05T17:15:20.050Z,1.65
2022-08-05T17:17:55.115Z,1.58
2022-08-05T17:20:31.754Z,1.45
2022-08-05T17:23:01.920Z,1.70
2022-08-05T17:25:40.025Z,1.40
2022-08-05T17:28:15.453Z,1.60
2022-08-05T17:30:50.831Z,1.70
2022-08-05T17:33:28.315Z,1.40
2022-08-05T17:36:32.751Z,1.50
2022-08-05T17:39:05.951Z,1.75
2022-08-05T17:42:17.559Z,1.95
2022-08-05T17:44:50.297Z,1.70
2022-08-05T17:47:24.711Z,1.77
2022-08-05T17:50:04.061Z,1.65
2022-08-05T17:52:53.306Z,1.40
2022-08-05T17:55:34.440Z,1.33
2022-08-05T17:58:21.775Z,1.40
2022-08-05T18:01:02.990Z,1.38
2022-08-05T18:03:55.924Z,1.25
2022-08-05T18:06:35.704Z,1.38
2022-08-05T18:09:09.502Z,1.40
2022-08-05T18:11:44.809Z,1.33
2022-08-05T18:14:21.438Z,1.42
2022-08-05T18:16:52.660Z,1.40
2022-08-05T18:19:25.914Z,1.33
2022-08-05T18:22:09.061Z,1.50
2022-08-05T18:24:41.927Z,1.15
2022-08-05T18:27:18.396Z,1.45
2022-08-05T18:29:54.501Z,1.20
2022-08-05T18:32:28.269Z,1.30
2022-08-05T18:34:58.889Z,1.10
2022-08-05T18:37:33.951Z,0.95
2022-08-05T18:40:34.275Z,1.10
2022-08-05T18:43:03.915Z,1.20
2022-08-05T18:45:54.092Z,1.00
2022-08-05T18:48:31.280Z,1.13
2022-08-05T18:52:03.389Z,1.02
2022-08-05T18:54:11.830Z,1.10
2022-08-05T18:56:50.850Z,1.00
2022-08-05T18:59:43.382Z,1.10
2022-08-05T19:02:26.487Z,1.00
2022-08-05T19:06:06.002Z,0.98
2022-08-05T19:07:55.311Z,0.95
2022-08-05T19:10:28.861Z,1.00
2022-08-05T19:12:59.974Z,0.93
2022-08-05T19:16:00.012Z,0.98
2022-08-05T19:18:29.849Z,1.20
2022-08-05T19:21:00.141Z,1.10
2022-08-05T19:24:06.756Z,1.23
2022-08-05T19:26:24.535Z,1.20
2022-08-05T19:28:55.609Z,0.98
2022-08-05T19:31:27.209Z,1.80
2022-08-05T19:34:03.798Z,1.20
2022-08-05T19:36:34.079Z,1.50
2022-08-05T19:39:07.611Z,1.10
2022-08-05T19:42:06.227Z,1.27
2022-08-05T19:44:38.832Z,1.30
2022-08-05T19:47:18.932Z,1.50
2022-08-05T19:49:49.929Z,1.20
2022-08-05T19:52:32.610Z,1.35
2022-08-05T19:55:08.954Z,1.02
2022-08-05T19:58:19.454Z,1.27
2022-08-05T20:00:46.683Z,1.40
2022-08-05T20:03:17.686Z,1.30
2022-08-05T20:05:51.369Z,1.33
2022-08-05T20:08:24.402Z,1.40
2022-08-05T20:10:56.395Z,1.40
2022-08-05T20:13:58.218Z,1.20
2022-08-05T20:16:24.880Z,1.60
2022-08-05T20:18:55.386Z,1.30
2022-08-05T20:21:26.104Z,1.40
2022-08-05T20:23:56.327Z,1.40
2022-08-05T20:26:28.104Z,1.75
2022-08-05T20:29:03.859Z,1.70
2022-08-05T20:31:52.265Z,1.73
2022-08-05T20:34:25.092Z,1.92
2022-08-05T20:36:58.204Z,1.90
2022-08-05T20:39:35.609Z,1.65
2022-08-05T20:42:07.642Z,1.50
2022-08-05T20:44:44.633Z,1.35
2022-08-05T20:47:15.067Z,1.33
2022-08-05T20:49:45.316Z,1.60
2022-08-05T20:52:27.675Z,1.40
2022-08-05T20:55:15.953Z,1.10
2022-08-05T20:57:48.396Z,1.35
2022-08-05T21:00:44.400Z,1.30
2022-08-05T21:03:12.071Z,1.35
2022-08-05T21:05:54.377Z,1.50
2022-08-05T21:08:41.452Z,1.40
2022-08-05T21:11:12.846Z,1.55
2022-08-05T21:14:03.018Z,1.50
2022-08-05T21:16:38.283Z,1.30
2022-08-05T21:19:08.660Z,1.50
2022-08-05T21:21:50.472Z,1.20
2022-08-05T21:24:21.469Z,1.33
2022-08-05T21:26:58.485Z,1.10
2022-08-05T21:29:32.049Z,1.15
2022-08-05T21:32:05.558Z,1.30
2022-08-05T21:34:35.842Z,1.30
2022-08-05T21:37:08.116Z,1.60
2022-08-05T21:39:40.476Z,1.40
2022-08-05T21:42:31.095Z,1.42
2022-08-05T21:45:02.069Z,1.15
2022-08-05T21:47:56.845Z,1.50
2022-08-05T21:50:25.407Z,1.55
2022-08-05T21:52:58.915Z,1.40
2022-08-05T21:55:42.824Z,1.55
2022-08-05T21:58:31.881Z,1.60
2022-08-05T22:01:23.986Z,1.70
2022-08-05T22:03:57.823Z,1.67
2022-08-05T22:06:35.190Z,1.45
2022-08-05T22:09:15.066Z,1.40
2022-08-05T22:11:54.643Z,1.38
2022-08-05T22:14:35.471Z,1.73
2022-08-05T22:17:08.968Z,1.65
2022-08-05T22:20:03.523Z,1.50
2022-08-05T22:22:55.447Z,1.50
2022-08-05T22:26:11.402Z,1.40
2022-08-05T22:28:29.884Z,1.48
2022-08-05T22:31:05.082Z,1.25
2022-08-05T22:33:57.881Z,1.60
2022-08-05T22:36:34.299Z,1.20
2022-08-05T22:39:09.380Z,1.40
2022-08-05T22:42:09.898Z,1.58
2022-08-05T22:44:30.354Z,1.30
2022-08-05T22:47:00.544Z,1.40
2022-08-05T22:50:19.392Z,1.25
2022-08-05T22:52:34.218Z,1.40
2022-08-05T22:55:18.264Z,1.25
2022-08-05T22:57:53.978Z,1.20
2022-08-05T23:00:27.268Z,1.70
2022-08-05T23:02:58.026Z,1.50
2022-08-05T23:05:28.530Z,1.40
2022-08-05T23:08:07.020Z,1.52
2022-08-05T23:11:00.309Z,1.30
2022-08-05T23:13:39.744Z,1.52
2022-08-05T23:16:10.662Z,1.67
2022-08-05T23:18:40.862Z,1.23
2022-08-05T23:21:12.862Z,1.48
2022-08-05T23:23:49.349Z,1.23
2022-08-05T23:26:22.452Z,1.50
2022-08-05T23:29:00.631Z,1.83
2022-08-05T23:31:31.494Z,1.73
2022-08-05T23:34:07.519Z,1.30
2022-08-05T23:36:44.710Z,1.55
2022-08-05T23:39:53.465Z,1.60
2022-08-05T23:42:29.624Z,1.85
2022-08-05T23:45:00.120Z,1.50
2022-08-05T23:47:33.635Z,1.60
2022-08-05T23:50:03.997Z,1.80
2022-08-05T23:52:50.144Z,1.88
2022-08-05T23:55:31.243Z,2.00
2022-08-05T23:58:01.644Z,1.70
